createdAt,value
2018-07-22T00:01:09.676Z,21.86
2018-07-22T00:03:39.604Z,21.86
2018-07-22T00:06:09.600Z,21.84
2018-07-22T00:08:39.466Z,21.80
2018-07-22T00:11:09.367Z,21.84
2018-07-22T00:13:39.259Z,21.80
2018-07-22T00:16:09.103Z,21.77
2018-07-22T00:18:39.111Z,21.82
2018-07-22T00:21:08.896Z,21.76
2018-07-22T00:23:38.695Z,21.77
2018-07-22T00:26:08.576Z,21.80
2018-07-22T00:28:38.423Z,21.71
2018-07-22T00:31:08.589Z,21.68
2018-07-22T00:33:38.447Z,21.75
2018-07-22T00:36:08.376Z,21.76
2018-07-22T00:38:38.172Z,21.66
2018-07-22T00:41:08.797Z,21.59
2018-07-22T00:43:38.658Z,21.53
2018-07-22T00:48:37.178Z,21.50
2018-07-22T00:51:07.362Z,21.43
2018-07-22T00:53:37.277Z,21.36
2018-07-22T00:56:07.275Z,21.33
2018-07-22T00:58:37.192Z,21.35
2018-07-22T01:01:07.172Z,21.28
2018-07-22T01:03:37.268Z,21.26
2018-07-22T01:06:07.284Z,21.23
2018-07-22T01:08:37.228Z,21.34
2018-07-22T01:11:07.358Z,21.41
2018-07-22T01:13:37.500Z,21.39
2018-07-22T01:16:07.484Z,21.40
2018-07-22T01:18:37.455Z,21.34
2018-07-22T01:21:07.613Z,21.29
2018-07-22T01:23:37.647Z,21.24
2018-07-22T01:26:07.539Z,21.25
2018-07-22T01:28:37.505Z,21.22
2018-07-22T01:31:07.406Z,21.20
2018-07-22T01:33:37.416Z,21.13
2018-07-22T01:36:07.344Z,21.12
2018-07-22T01:38:37.304Z,21.15
2018-07-22T01:41:07.365Z,21.16
2018-07-22T01:43:37.296Z,21.18
2018-07-22T01:46:07.197Z,21.17
2018-07-22T01:48:37.159Z,21.15
2018-07-22T01:51:07.076Z,21.10
2018-07-22T01:53:37.066Z,21.10
2018-07-22T01:56:09.909Z,21.09
2018-07-22T01:58:39.789Z,21.11
2018-07-22T02:01:09.691Z,21.01
2018-07-22T02:03:39.671Z,20.91
2018-07-22T02:06:09.644Z,21.00
2018-07-22T02:08:39.590Z,21.02
2018-07-22T02:11:09.531Z,21.02
2018-07-22T02:13:39.427Z,20.99
2018-07-22T02:16:09.343Z,20.98
2018-07-22T02:18:39.203Z,20.96
2018-07-22T02:21:09.147Z,20.86
2018-07-22T02:23:38.924Z,20.83
2018-07-22T02:26:08.981Z,20.83
2018-07-22T02:28:38.779Z,20.82
2018-07-22T02:31:09.495Z,20.83
2018-07-22T02:33:39.564Z,20.77
2018-07-22T02:36:09.463Z,20.79
2018-07-22T02:38:39.276Z,20.75
2018-07-22T02:41:09.196Z,20.66
2018-07-22T02:43:39.160Z,20.72
2018-07-22T02:46:08.996Z,20.77
2018-07-22T02:48:39.037Z,20.76
2018-07-22T02:51:08.999Z,20.77
2018-07-22T02:53:38.982Z,20.73
2018-07-22T02:56:08.910Z,20.72
2018-07-22T02:58:38.876Z,20.63
2018-07-22T03:01:08.696Z,20.62
2018-07-22T03:03:38.593Z,20.60
2018-07-22T03:06:08.510Z,20.56
2018-07-22T03:08:38.431Z,20.58
2018-07-22T03:11:08.420Z,20.58
2018-07-22T03:13:38.324Z,20.53
2018-07-22T03:16:08.647Z,20.55
2018-07-22T03:18:38.572Z,20.53
2018-07-22T03:21:08.478Z,20.57
2018-07-22T03:23:38.562Z,20.51
2018-07-22T03:26:08.351Z,20.49
2018-07-22T03:28:38.240Z,20.53
2018-07-22T03:31:08.146Z,20.56
2018-07-22T03:33:38.104Z,20.52
2018-07-22T03:36:07.950Z,20.50
2018-07-22T03:38:37.896Z,20.46
2018-07-22T03:41:07.731Z,20.57
2018-07-22T03:43:37.667Z,20.58
2018-07-22T03:46:07.786Z,20.63
2018-07-22T03:48:37.631Z,20.68
2018-07-22T03:51:07.743Z,20.68
2018-07-22T03:53:37.662Z,20.81
2018-07-22T03:56:07.511Z,20.73
2018-07-22T03:58:37.527Z,20.81
2018-07-22T04:01:07.560Z,20.86
2018-07-22T04:03:37.483Z,20.92
2018-07-22T04:06:07.455Z,20.82
2018-07-22T04:08:37.239Z,20.75
2018-07-22T04:11:13.516Z,20.62
2018-07-22T04:13:43.498Z,20.64
2018-07-22T04:16:13.342Z,20.96
2018-07-22T04:18:52.899Z,21.09
2018-07-22T04:21:24.178Z,21.17
2018-07-22T04:23:54.064Z,21.21
2018-07-22T04:26:24.028Z,21.27
2018-07-22T04:28:53.939Z,21.37
2018-07-22T04:31:23.880Z,21.48
2018-07-22T04:33:53.850Z,21.54
2018-07-22T04:36:23.751Z,21.61
2018-07-22T04:38:53.553Z,22.07
2018-07-22T04:41:23.422Z,22.34
2018-07-22T04:43:53.428Z,22.57
2018-07-22T04:46:23.515Z,22.56
2018-07-22T04:48:53.481Z,22.50
2018-07-22T04:51:23.425Z,22.39
2018-07-22T04:53:53.936Z,22.38
2018-07-22T04:56:23.973Z,22.34
2018-07-22T04:58:53.964Z,22.35
2018-07-22T05:01:23.849Z,22.33
2018-07-22T05:03:53.789Z,22.32
2018-07-22T05:06:23.635Z,22.31
2018-07-22T05:08:53.656Z,22.31
2018-07-22T05:11:23.627Z,22.33
2018-07-22T05:13:53.564Z,22.28
2018-07-22T05:16:23.512Z,22.24
2018-07-22T05:18:53.668Z,22.30
2018-07-22T05:21:29.905Z,22.32
2018-07-22T05:23:59.764Z,22.41
2018-07-22T05:26:29.700Z,22.41
2018-07-22T05:28:59.575Z,22.74
2018-07-22T05:31:29.741Z,23.00
2018-07-22T05:33:59.668Z,23.29
2018-07-22T05:36:29.594Z,23.66
2018-07-22T05:38:59.468Z,24.07
2018-07-22T05:41:29.355Z,24.35
2018-07-22T05:43:59.207Z,24.62
2018-07-22T05:46:29.130Z,24.82
2018-07-22T05:48:59.105Z,25.03
2018-07-22T05:51:29.069Z,25.11
2018-07-22T05:53:58.940Z,25.20
2018-07-22T05:56:28.820Z,25.18
2018-07-22T05:58:58.767Z,25.07
2018-07-22T06:01:28.702Z,24.97
2018-07-22T06:03:58.561Z,25.03
2018-07-22T06:06:28.471Z,25.02
2018-07-22T06:08:58.524Z,25.07
2018-07-22T06:11:28.488Z,25.03
2018-07-22T06:13:58.446Z,24.96
2018-07-22T06:16:28.632Z,25.00
2018-07-22T06:18:58.609Z,25.06
2018-07-22T06:21:28.940Z,24.67
2018-07-22T06:23:58.918Z,24.50
2018-07-22T06:26:28.793Z,24.67
2018-07-22T06:28:58.741Z,24.73
2018-07-22T06:31:28.820Z,24.70
2018-07-22T06:33:58.662Z,24.53
2018-07-22T06:36:28.574Z,24.41
2018-07-22T06:38:58.412Z,24.27
2018-07-22T06:41:28.308Z,24.35
2018-07-22T06:43:58.188Z,24.47
2018-07-22T06:46:28.045Z,24.32
2018-07-22T06:48:58.038Z,23.92
2018-07-22T06:51:27.979Z,24.27
2018-07-22T06:53:57.963Z,24.56
2018-07-22T06:56:27.763Z,24.49
2018-07-22T06:58:58.158Z,24.78
2018-07-22T07:01:28.087Z,24.90
2018-07-22T07:03:57.983Z,25.01
2018-07-22T07:06:27.884Z,25.19
2018-07-22T07:08:57.779Z,25.26
2018-07-22T07:11:27.776Z,25.31
2018-07-22T07:13:59.411Z,25.44
2018-07-22T07:16:29.331Z,25.54
2018-07-22T07:18:59.107Z,25.62
2018-07-22T07:21:29.056Z,25.55
2018-07-22T07:23:58.820Z,25.44
2018-07-22T07:26:28.685Z,25.68
2018-07-22T07:28:58.659Z,25.55
2018-07-22T07:31:29.195Z,25.57
2018-07-22T07:33:59.101Z,25.86
2018-07-22T07:36:29.051Z,26.00
2018-07-22T07:38:58.905Z,26.11
2018-07-22T07:41:28.922Z,25.97
2018-07-22T07:43:59.026Z,25.36
2018-07-22T07:46:28.863Z,25.58
2018-07-22T07:48:58.993Z,25.61
2018-07-22T07:51:29.014Z,25.85
2018-07-22T07:53:58.863Z,25.72
2018-07-22T07:56:28.995Z,25.90
2018-07-22T07:58:59.031Z,26.19
2018-07-22T08:01:29.347Z,26.10
2018-07-22T08:03:59.636Z,26.38
2018-07-22T08:06:29.809Z,26.37
2018-07-22T08:08:59.857Z,26.14
2018-07-22T08:11:29.800Z,26.00
2018-07-22T08:13:59.959Z,26.11
2018-07-22T08:16:29.804Z,26.24
2018-07-22T08:18:59.770Z,26.36
2018-07-22T08:21:29.764Z,26.24
2018-07-22T08:23:59.746Z,26.34
2018-07-22T08:26:29.674Z,26.37
2018-07-22T08:29:33.106Z,26.61
2018-07-22T08:32:04.263Z,26.79
2018-07-22T08:34:34.175Z,26.89
2018-07-22T08:37:04.105Z,26.71
2018-07-22T08:39:34.131Z,26.79
2018-07-22T08:42:04.117Z,26.94
2018-07-22T08:44:33.936Z,26.82
2018-07-22T08:47:03.842Z,26.79
2018-07-22T08:49:33.594Z,26.82
2018-07-22T08:52:03.352Z,26.99
2018-07-22T08:54:33.294Z,27.00
2018-07-22T08:57:03.251Z,26.98
2018-07-22T08:59:33.111Z,26.92
2018-07-22T09:02:02.998Z,26.91
2018-07-22T09:04:32.999Z,26.98
2018-07-22T09:07:02.873Z,27.03
2018-07-22T09:09:32.677Z,27.13
2018-07-22T09:12:02.529Z,27.12
2018-07-22T09:14:32.496Z,27.11
2018-07-22T09:17:02.382Z,27.19
2018-07-22T09:19:32.353Z,27.28
2018-07-22T09:22:02.241Z,27.39
2018-07-22T09:24:32.045Z,27.36
2018-07-22T09:27:08.583Z,27.49
2018-07-22T09:29:38.419Z,27.42
2018-07-22T09:32:08.553Z,27.43
2018-07-22T09:34:38.500Z,27.53
2018-07-22T09:37:08.421Z,27.61
2018-07-22T09:39:38.354Z,27.66
2018-07-22T09:42:08.465Z,27.59
2018-07-22T09:44:38.299Z,27.62
2018-07-22T09:47:08.139Z,27.64
2018-07-22T09:49:38.009Z,27.57
2018-07-22T09:52:07.918Z,27.69
2018-07-22T09:54:37.897Z,27.92
2018-07-22T09:57:07.760Z,27.82
2018-07-22T09:59:37.656Z,27.97
2018-07-22T10:02:07.556Z,27.98
2018-07-22T10:04:37.546Z,28.08
2018-07-22T10:07:08.202Z,27.97
2018-07-22T10:09:38.153Z,27.92
2018-07-22T10:12:08.232Z,27.91
2018-07-22T10:14:38.202Z,28.02
2018-07-22T10:17:08.031Z,28.14
2018-07-22T10:19:37.892Z,28.23
2018-07-22T10:22:07.751Z,28.27
2018-07-22T10:24:37.732Z,28.24
2018-07-22T10:27:07.671Z,28.25
2018-07-22T10:29:37.571Z,28.19
2018-07-22T10:32:07.937Z,28.25
2018-07-22T10:34:37.796Z,28.26
2018-07-22T10:37:07.547Z,28.34
2018-07-22T10:39:37.307Z,28.41
2018-07-22T10:42:07.188Z,28.50
2018-07-22T10:44:37.010Z,28.65
2018-07-22T10:47:06.820Z,28.69
2018-07-22T10:49:37.252Z,28.73
2018-07-22T10:52:07.087Z,28.61
2018-07-22T10:54:37.018Z,28.60
2018-07-22T10:57:07.008Z,28.65
2018-07-22T10:59:36.905Z,28.77
2018-07-22T11:02:06.789Z,28.87
2018-07-22T11:04:36.608Z,28.93
2018-07-22T11:07:06.548Z,29.01
2018-07-22T11:09:36.354Z,29.10
2018-07-22T11:12:06.224Z,29.21
2018-07-22T11:14:36.212Z,29.40
2018-07-22T11:17:06.283Z,29.51
2018-07-22T11:19:36.298Z,29.48
2018-07-22T11:22:06.185Z,29.44
2018-07-22T11:24:36.051Z,29.44
2018-07-22T11:27:06.038Z,29.25
2018-07-22T11:29:36.436Z,29.32
2018-07-22T11:32:06.436Z,29.38
2018-07-22T11:34:36.200Z,29.43
2018-07-22T11:37:06.032Z,29.45
2018-07-22T11:39:35.779Z,29.26
2018-07-22T11:42:05.664Z,29.17
2018-07-22T11:44:35.547Z,29.45
2018-07-22T11:47:05.496Z,29.62
2018-07-22T11:49:35.397Z,29.64
2018-07-22T11:52:05.229Z,29.79
2018-07-22T11:54:35.040Z,29.92
2018-07-22T11:57:05.006Z,29.87
2018-07-22T11:59:34.864Z,29.86
2018-07-22T12:02:05.082Z,29.89
2018-07-22T12:04:35.920Z,30.02
2018-07-22T12:07:05.864Z,30.01
2018-07-22T12:09:35.788Z,29.95
2018-07-22T12:12:05.862Z,29.87
2018-07-22T12:14:35.798Z,29.95
2018-07-22T12:17:06.324Z,29.91
2018-07-22T12:19:36.196Z,29.87
2018-07-22T12:22:06.055Z,29.84
2018-07-22T12:24:35.829Z,29.88
2018-07-22T12:27:05.909Z,29.91
2018-07-22T12:29:35.858Z,29.86
2018-07-22T12:32:05.789Z,29.89
2018-07-22T12:34:35.864Z,29.74
2018-07-22T12:37:05.720Z,29.59
2018-07-22T12:39:36.351Z,29.60
2018-07-22T12:42:06.681Z,29.50
2018-07-22T12:44:36.589Z,29.49
2018-07-22T12:47:07.343Z,29.46
2018-07-22T12:49:37.167Z,29.43
2018-07-22T12:52:07.010Z,29.33
2018-07-22T12:54:36.832Z,29.22
2018-07-22T12:57:06.880Z,29.19
2018-07-22T12:59:36.886Z,29.22
2018-07-22T13:02:06.886Z,29.04
2018-07-22T13:04:36.719Z,29.05
2018-07-22T13:07:07.065Z,29.05
2018-07-22T13:09:36.850Z,29.06
2018-07-22T13:12:06.788Z,29.04
2018-07-22T13:14:36.595Z,29.09
2018-07-22T13:17:06.427Z,28.74
2018-07-22T13:19:36.251Z,28.48
2018-07-22T13:22:06.059Z,28.41
2018-07-22T13:24:35.801Z,28.31
2018-07-22T13:27:05.760Z,28.42
2018-07-22T13:29:35.528Z,28.45
2018-07-22T13:32:05.467Z,28.47
2018-07-22T13:34:35.313Z,28.40
2018-07-22T13:37:05.102Z,28.42
2018-07-22T13:39:34.939Z,28.37
2018-07-22T13:42:04.734Z,28.28
2018-07-22T13:44:34.672Z,28.28
2018-07-22T13:47:04.475Z,28.12
2018-07-22T13:49:34.788Z,28.08
2018-07-22T13:52:04.555Z,27.70
2018-07-22T13:54:34.492Z,27.81
2018-07-22T13:57:04.405Z,27.78
2018-07-22T13:59:34.339Z,27.83
2018-07-22T14:02:04.256Z,27.84
2018-07-22T14:04:34.217Z,27.52
2018-07-22T14:07:04.278Z,27.61
2018-07-22T14:09:34.147Z,27.63
2018-07-22T14:12:04.221Z,27.75
2018-07-22T14:14:34.139Z,27.93
2018-07-22T14:17:04.068Z,27.91
2018-07-22T14:19:33.977Z,27.83
2018-07-22T14:22:04.019Z,28.00
2018-07-22T14:24:34.374Z,28.05
2018-07-22T14:27:04.175Z,28.17
2018-07-22T14:29:34.150Z,28.23
2018-07-22T14:32:04.077Z,28.30
2018-07-22T14:34:34.033Z,28.35
2018-07-22T14:37:03.871Z,28.48
2018-07-22T14:39:34.043Z,28.51
2018-07-22T14:42:04.107Z,28.64
2018-07-22T14:44:33.997Z,28.70
2018-07-22T14:47:04.022Z,28.74
2018-07-22T14:49:33.903Z,28.66
2018-07-22T14:52:03.755Z,28.77
2018-07-22T14:54:33.700Z,28.81
2018-07-22T14:57:03.523Z,28.91
2018-07-22T14:59:33.502Z,28.79
2018-07-22T15:02:03.300Z,28.89
2018-07-22T15:04:33.251Z,28.91
2018-07-22T15:07:03.158Z,28.87
2018-07-22T15:09:33.019Z,28.78
2018-07-22T15:12:02.994Z,28.64
2018-07-22T15:14:32.911Z,28.59
2018-07-22T15:17:02.775Z,28.55
2018-07-22T15:19:32.648Z,28.67
2018-07-22T15:22:02.676Z,28.73
2018-07-22T15:24:32.712Z,28.74
2018-07-22T15:27:02.736Z,28.74
2018-07-22T15:29:32.691Z,28.76
2018-07-22T15:32:02.459Z,28.72
2018-07-22T15:34:32.251Z,28.67
2018-07-22T15:37:02.079Z,28.74
2018-07-22T15:39:32.220Z,28.81
2018-07-22T15:42:01.987Z,28.88
2018-07-22T15:44:31.840Z,28.89
2018-07-22T15:47:01.751Z,28.84
2018-07-22T15:49:31.711Z,28.88
2018-07-22T15:52:01.720Z,28.87
2018-07-22T15:54:31.674Z,28.95
2018-07-22T15:57:01.708Z,29.00
2018-07-22T15:59:31.570Z,29.03
2018-07-22T16:02:01.515Z,29.03
2018-07-22T16:04:31.693Z,29.07
2018-07-22T16:07:01.587Z,29.12
2018-07-22T16:09:31.416Z,29.26
2018-07-22T16:12:01.157Z,29.36
2018-07-22T16:14:30.987Z,29.44
2018-07-22T16:17:00.970Z,29.53
2018-07-22T16:19:30.756Z,29.51
2018-07-22T16:22:00.634Z,29.53
2018-07-22T16:24:30.429Z,29.54
2018-07-22T16:27:00.224Z,29.48
2018-07-22T16:29:29.995Z,29.45
2018-07-22T16:31:59.811Z,29.35
2018-07-22T16:34:29.718Z,29.33
2018-07-22T16:36:59.511Z,29.21
2018-07-22T16:39:29.339Z,29.15
2018-07-22T16:41:59.317Z,29.06
2018-07-22T16:44:29.240Z,29.00
2018-07-22T16:46:59.884Z,29.00
2018-07-22T16:49:29.884Z,28.91
2018-07-22T16:51:59.851Z,28.84
2018-07-22T16:54:29.756Z,28.80
2018-07-22T16:56:59.656Z,28.70
2018-07-22T16:59:29.637Z,28.45
2018-07-22T17:01:59.521Z,28.46
2018-07-22T17:04:29.376Z,28.48
2018-07-22T17:06:59.219Z,28.44
2018-07-22T17:09:29.079Z,28.44
2018-07-22T17:11:58.885Z,28.28
2018-07-22T17:14:28.882Z,28.09
2018-07-22T17:16:58.774Z,28.13
2018-07-22T17:19:28.585Z,28.06
2018-07-22T17:21:58.399Z,27.97
2018-07-22T17:24:28.334Z,28.00
2018-07-22T17:26:58.144Z,27.89
2018-07-22T17:29:27.931Z,27.83
2018-07-22T17:31:57.687Z,27.88
2018-07-22T17:34:27.484Z,27.85
2018-07-22T17:36:57.346Z,27.81
2018-07-22T17:39:27.253Z,27.89
2018-07-22T17:41:57.364Z,27.82
2018-07-22T17:44:27.203Z,27.66
2018-07-22T17:46:57.032Z,27.72
2018-07-22T17:49:26.937Z,27.72
2018-07-22T17:51:56.715Z,27.70
2018-07-22T17:54:26.499Z,27.70
2018-07-22T17:56:56.449Z,27.66
2018-07-22T17:59:26.542Z,27.48
2018-07-22T18:01:56.411Z,27.55
2018-07-22T18:04:26.240Z,27.49
2018-07-22T18:06:56.076Z,27.56
2018-07-22T18:09:25.927Z,27.36
2018-07-22T18:11:55.812Z,27.43
2018-07-22T18:14:32.234Z,27.47
2018-07-22T18:17:02.231Z,27.48
2018-07-22T18:19:32.103Z,27.20
2018-07-22T18:22:01.909Z,27.31
2018-07-22T18:24:31.868Z,27.35
2018-07-22T18:27:01.648Z,27.40
2018-07-22T18:29:31.522Z,27.39
2018-07-22T18:32:01.438Z,27.37
2018-07-22T18:34:31.379Z,27.41
2018-07-22T18:37:01.293Z,27.45
2018-07-22T18:39:31.227Z,27.44
2018-07-22T18:42:01.245Z,27.48
2018-07-22T18:44:31.178Z,27.45
2018-07-22T18:47:01.036Z,27.45
2018-07-22T18:49:30.873Z,27.46
2018-07-22T18:52:00.735Z,27.40
2018-07-22T18:54:30.687Z,26.57
2018-07-22T18:57:00.472Z,26.80
2018-07-22T18:59:30.232Z,27.00
2018-07-22T19:02:00.076Z,27.01
2018-07-22T19:04:29.896Z,26.95
2018-07-22T19:06:59.695Z,26.88
2018-07-22T19:09:29.717Z,26.89
2018-07-22T19:11:59.582Z,26.69
2018-07-22T19:14:29.411Z,26.60
2018-07-22T19:16:59.289Z,26.78
2018-07-22T19:19:29.086Z,26.85
2018-07-22T19:21:58.912Z,26.78
2018-07-22T19:24:28.814Z,26.81
2018-07-22T19:26:58.698Z,26.84
2018-07-22T19:29:28.660Z,26.94
2018-07-22T19:31:58.524Z,27.03
2018-07-22T19:34:28.423Z,27.06
2018-07-22T19:36:58.377Z,27.05
2018-07-22T19:39:28.161Z,27.11
2018-07-22T19:41:58.039Z,27.13
2018-07-22T19:44:27.903Z,27.15
2018-07-22T19:46:57.823Z,27.20
2018-07-22T19:49:27.870Z,27.20
2018-07-22T19:51:57.739Z,27.18
2018-07-22T19:54:27.684Z,27.18
2018-07-22T19:56:59.242Z,27.17
2018-07-22T19:59:29.223Z,27.14
2018-07-22T20:01:59.263Z,27.13
2018-07-22T20:04:29.156Z,27.11
2018-07-22T20:06:59.077Z,27.07
2018-07-22T20:09:29.038Z,26.99
2018-07-22T20:11:58.975Z,26.13
2018-07-22T20:14:28.818Z,25.82
2018-07-22T20:16:58.607Z,25.51
2018-07-22T20:19:28.466Z,25.81
2018-07-22T20:21:58.332Z,26.04
2018-07-22T20:24:28.305Z,26.08
2018-07-22T20:26:58.041Z,26.02
2018-07-22T20:29:28.002Z,25.87
2018-07-22T20:31:57.995Z,25.88
2018-07-22T20:34:27.894Z,25.79
2018-07-22T20:36:57.878Z,25.53
2018-07-22T20:39:27.812Z,25.67
2018-07-22T20:41:57.776Z,25.37
2018-07-22T20:44:27.667Z,25.33
2018-07-22T20:46:57.475Z,25.01
2018-07-22T20:49:27.325Z,25.28
2018-07-22T20:51:57.236Z,24.87
2018-07-22T20:54:27.212Z,24.93
2018-07-22T20:56:57.152Z,24.86
2018-07-22T20:59:27.053Z,25.10
2018-07-22T21:01:56.939Z,25.21
2018-07-22T21:04:27.725Z,25.46
2018-07-22T21:06:57.566Z,25.58
2018-07-22T21:09:27.469Z,25.83
2018-07-22T21:13:06.936Z,26.04
2018-07-22T21:15:36.951Z,26.19
2018-07-22T21:18:06.912Z,26.31
2018-07-22T21:20:36.838Z,26.32
2018-07-22T21:23:07.143Z,26.26
2018-07-22T21:25:37.106Z,26.32
2018-07-22T21:28:07.071Z,26.35
2018-07-22T21:30:36.934Z,26.28
2018-07-22T21:33:06.765Z,26.35
2018-07-22T21:35:36.631Z,26.41
2018-07-22T21:38:06.519Z,26.42
2018-07-22T21:40:36.360Z,25.85
2018-07-22T21:43:06.195Z,24.95
2018-07-22T21:45:36.067Z,24.73
2018-07-22T21:48:06.119Z,25.15
2018-07-22T21:50:36.127Z,25.57
2018-07-22T21:53:05.991Z,25.78
2018-07-22T21:55:35.975Z,25.93
2018-07-22T21:58:05.828Z,26.01
2018-07-22T22:00:40.864Z,26.08
2018-07-22T22:03:10.732Z,26.15
2018-07-22T22:05:40.816Z,26.16
2018-07-22T22:08:10.717Z,26.19
2018-07-22T22:10:40.712Z,26.22
2018-07-22T22:13:10.519Z,26.24
2018-07-22T22:15:40.617Z,26.28
2018-07-22T22:18:10.480Z,26.34
2018-07-22T22:20:40.701Z,26.19
2018-07-22T22:23:10.571Z,26.30
2018-07-22T22:25:40.540Z,26.20
2018-07-22T22:28:10.495Z,26.03
2018-07-22T22:30:40.453Z,25.83
2018-07-22T22:33:10.360Z,25.53
2018-07-22T22:35:40.264Z,25.63
2018-07-22T22:38:10.089Z,25.75
2018-07-22T22:40:39.950Z,25.80
2018-07-22T22:43:09.955Z,25.84
2018-07-22T22:45:39.904Z,25.85
2018-07-22T22:48:09.831Z,25.81
2018-07-22T22:50:39.784Z,25.80
2018-07-22T22:53:09.604Z,24.97
2018-07-22T22:55:39.719Z,25.21
2018-07-22T22:58:20.162Z,25.25
2018-07-22T23:00:50.028Z,25.47
2018-07-22T23:03:19.955Z,25.56
2018-07-22T23:05:49.806Z,25.66
2018-07-22T23:08:19.767Z,25.69
2018-07-22T23:10:49.571Z,25.74
2018-07-22T23:13:19.363Z,25.72
2018-07-22T23:15:49.361Z,25.63
2018-07-22T23:18:19.170Z,24.67
2018-07-22T23:20:49.249Z,25.05
2018-07-22T23:23:20.279Z,25.14
2018-07-22T23:25:50.207Z,25.23
2018-07-22T23:28:20.093Z,25.19
2018-07-22T23:30:49.918Z,25.17
2018-07-22T23:33:19.734Z,25.14
2018-07-22T23:35:49.567Z,25.14
2018-07-22T23:38:19.338Z,25.08
2018-07-22T23:40:49.240Z,25.05
2018-07-22T23:43:19.128Z,24.96
2018-07-22T23:45:49.019Z,24.93
2018-07-22T23:48:18.963Z,24.87
2018-07-22T23:50:48.843Z,24.79
2018-07-22T23:53:18.695Z,24.76
2018-07-22T23:55:48.467Z,24.75
2018-07-22T23:58:18.436Z,24.67
